Latest Coastal Weather Observations for Hopetoun North

IDW60701

Issued at 9:33 am WST Friday 20 January 2017 (issued every 10 minutes, with the page automatically refreshed every 10 minutes)

About coastal observations | Map of coastal stations | Coastal observations for WA | Marine services | Other Formats
Station Details ID: 009961 Name: HOPETOUN NORTH Lat: -33.93 Lon: 120.13 Height: 26.0 m
Data from the previous 72 hours. | See also: Recent months at Hopetoun North
Date/Time
WST
Temp
°C
Wind Pressure Rain since
9am
mm
Weather Cloud Vis
km
Sea
Height
m
Swell
Dir  Spd
kts
Gust
kts
hPa Trend Height
m
Period
s
Dir
20/09:30am 20.6 SSE 9 13 1012.9 - 0.0 - - - - - - -
20/09:00am 20.4 SSE 7 10 1013.2 - 0.2 - - - - - - -
20/08:30am 20.3 SSE 5 9 1013.3 - 0.2 - - - - - - -
20/08:00am 20.5 SSE 6 9 1013.3 - 0.2 - - - - - - -
20/07:30am 19.7 SSE 6 9 1013.3 - 0.2 - - - - - - -
20/07:00am 19.3 S 7 9 1013.1 - 0.2 - - - - - - -
20/06:30am 17.8 S 7 9 1012.9 - 0.2 - - - - - - -
20/06:00am 16.4 S 4 5 1012.6 - 0.2 - - - - - - -
20/05:30am 15.2 W 3 5 1012.5 - 0.2 - - - - - - -
20/05:00am 14.9 WNW 2 3 1012.7 - 0.2 - - - - - - -
20/04:30am 15.1 W 5 6 1012.7 - 0.2 - - - - - - -
20/04:00am 14.9 W 6 8 1012.5 - 0.2 - - - - - - -
20/03:30am 14.7 W 5 6 1012.5 - 0.2 - - - - - - -
20/03:00am 15.2 WSW 4 6 1012.3 - 0.2 - - - - - - -
20/02:30am 16.3 SW 7 9 1012.3 - 0.2 - - - - - - -
20/02:00am 16.4 SW 6 9 1012.4 - 0.2 - - - - - - -
20/01:30am 16.5 SSW 8 11 1012.3 - 0.2 - - - - - - -
20/01:00am 17.1 SSW 8 10 1012.3 - 0.2 - - - - - - -
20/12:30am 16.9 SW 8 11 1012.4 - 0.2 - - - - - - -
20/12:00am 17.0 SW 8 11 1012.5 - 0.2 - - - - - - -
 
Date/Time
WST
Temp
°C
Wind Pressure Rain since
9am
mm
Weather Cloud Vis
km
Sea
Height
m
Swell
Dir  Spd
kts
Gust
kts
hPa Trend Height
m
Period
s
Dir
19/11:30pm 17.2 SW 9 14 1012.6 - 0.2 - - - - - - -
19/11:00pm 17.2 SW 9 13 1012.6 - 0.2 - - - - - - -
19/10:30pm 17.4 SSW 10 14 1012.6 - 0.2 - - - - - - -
19/10:00pm 17.5 SW 10 15 1012.5 - 0.2 - - - - - - -
19/09:30pm 17.4 SSW 11 16 1012.4 - 0.2 - - - - - - -
19/09:00pm 17.6 SSW 11 15 1012.2 - 0.2 - - - - - - -
19/08:30pm 17.8 SSW 10 13 1012.0 - 0.2 - - - - - - -
19/08:00pm 17.4 SSW 9 12 1011.9 - 0.2 - - - - - - -
19/07:30pm 17.4 SSW 10 15 1011.7 - 0.2 - - - - - - -
19/07:00pm 17.9 SSW 12 16 1011.5 - 0.2 - - - - - - -
19/06:30pm 18.6 SSW 13 18 1011.3 - 0.2 - - - - - - -
19/06:00pm 18.9 SSW 14 20 1011.0 - 0.2 - - - - - - -
19/05:30pm 19.7 SSW 14 19 1010.9 - 0.2 - - - - - - -
19/05:00pm 19.9 SSW 18 24 1010.8 - 0.2 - - - - - - -
19/04:30pm 20.4 SSW 14 20 1010.7 - 0.2 - - - - - - -
19/04:00pm 20.5 SSW 17 24 1010.1 - 0.2 - - - - - - -
19/03:30pm 20.6 SW 19 25 1010.0 - 0.2 - - - - - - -
19/03:00pm 21.2 SW 18 26 1009.7 - 0.2 - - - - - - -
19/02:40pm 21.1 SW 20 30 1009.6 - 0.2 - - - - - - -
19/02:30pm 20.8 SW 21 31 1009.4 - 0.2 - - - - - - -
19/02:28pm 20.9 SW 20 31 1009.4 - 0.2 - - - - - - -
19/02:00pm 20.1 SW 21 29 1009.3 - 0.2 - - - - - - -
19/01:30pm 21.0 SW 22 29 1009.4 - 0.0 - - - - - - -
19/01:00pm 20.6 SW 20 28 1009.3 - 0.0 - - - - - - -
19/12:30pm 19.3 SW 21 31 1009.4 - 0.0 - - - - - - -
19/12:16pm 19.5 SW 22 32 1009.3 - 0.0 - - - - - - -
19/12:00pm 19.8 SW 22 31 1009.3 - 0.0 - - - - - - -
19/11:30am 20.6 SW 21 32 1009.0 - 0.0 - - - - - - -
19/11:00am 21.3 SW 21 32 1008.9 - 0.0 - - - - - - -
19/10:45am 21.2 SW 22 32 1008.7 - 0.0 - - - - - - -
19/10:30am 19.8 SW 21 30 1008.7 - 0.0 - - - - - - -
19/10:07am 21.3 SW 19 33 1008.3 - 0.0 - - - - - - -
19/10:00am 20.4 SW 19 28 1008.2 - 0.0 - - - - - - -
19/09:32am 20.0 WSW 20 31 1008.3 - 0.0 - - - - - - -
19/09:30am 20.3 WSW 19 27 1008.3 - 0.0 - - - - - - -
19/09:10am 20.5 WSW 18 29 1008.2 - 0.0 - - - - - - -
19/09:00am 20.2 WSW 18 27 1008.1 - 1.8 - - - - - - -
19/08:42am 19.4 WSW 17 28 1008.0 - 1.8 - - - - - - -
19/08:30am 19.0 WSW 15 24 1007.9 - 1.8 - - - - - - -
19/08:00am 18.5 WSW 15 21 1007.6 - 1.8 - - - - - - -
19/07:30am 17.8 WSW 15 25 1007.1 - 1.8 - - - - - - -
19/07:00am 17.6 WSW 16 23 1006.8 - 1.8 - - - - - - -
19/06:30am 17.4 WSW 16 23 1006.2 - 1.8 - - - - - - -
19/06:00am 17.5 WSW 13 21 1005.9 - 1.8 Recent precip. - - - - - -
19/05:30am 17.5 WSW 13 23 1005.4 - 1.8 - - - - - - -
19/05:00am 18.1 WSW 15 21 1004.9 - 0.4 - - - - - - -
19/04:30am 19.3 WSW 13 18 1004.1 - 0.0 - - - - - - -
19/04:00am 19.9 WSW 13 21 1003.7 - 0.0 - - - - - - -
19/03:30am 18.3 NE 7 9 1001.7 - 0.0 - - - - - - -
19/03:00am 18.1 NE 6 7 1002.1 - 0.0 - - - - - - -
19/02:30am 17.9 ENE 5 6 1002.6 - 0.0 - - - - - - -
19/02:00am 18.3 ENE 3 4 1003.4 - 0.0 - - - - - - -
19/01:30am 18.9 NNE 2 3 1003.8 - 0.0 - - - - - - -
19/01:00am 19.3 N 4 6 1004.4 - 0.0 - - - - - - -
19/12:30am 19.3 N 3 4 1004.7 - 0.0 - - - - - - -
19/12:00am 19.3 NE 5 6 1005.0 - 0.0 - - - - - - -
 
Date/Time
WST
Temp
°C
Wind Pressure Rain since
9am
mm
Weather Cloud Vis
km
Sea
Height
m
Swell
Dir  Spd
kts
Gust
kts
hPa Trend Height
m
Period
s
Dir
18/11:30pm 19.4 NE 6 7 1005.4 - 0.0 - - - - - - -
18/11:00pm 19.7 ENE 5 7 1005.6 - 0.0 - - - - - - -
18/10:30pm 19.9 NE 7 9 1006.2 - 0.0 - - - - - - -
18/10:00pm 19.9 NE 4 5 1007.1 - 0.0 - - - - - - -
18/09:30pm 20.0 ENE 2 3 1007.3 - 0.0 - - - - - - -
18/09:00pm 19.8 ENE 2 3 1007.1 - 0.0 - - - - - - -
18/08:30pm 19.6 ESE 3 4 1007.2 - 0.0 - - - - - - -
18/08:00pm 19.5 ESE 6 9 1007.3 - 0.0 - - - - - - -
18/07:30pm 19.6 ESE 8 11 1007.6 - 0.0 - - - - - - -
18/07:00pm 19.6 ESE 11 17 1007.4 - 0.0 - - - - - - -
18/06:30pm 20.0 ESE 12 19 1007.8 - 0.0 - - - - - - -
18/06:00pm 20.3 ESE 14 20 1008.1 - 0.0 - - - - - - -
18/05:30pm 21.1 ESE 12 21 1008.5 - 0.0 - - - - - - -
18/05:00pm 21.0 ESE 16 23 1008.7 - 0.0 - - - - - - -
18/04:30pm 21.2 ESE 17 24 1008.8 - 0.0 - - - - - - -
18/04:00pm 21.3 ESE 18 25 1009.4 - 0.0 - - - - - - -
18/03:30pm 21.8 ESE 17 26 1010.0 - 0.0 - - - - - - -
18/03:00pm 22.0 ESE 18 26 1010.3 - 0.0 - - - - - - -
18/02:30pm 21.7 ESE 18 28 1010.3 - 0.0 - - - - - - -
18/02:12pm 21.7 ESE 17 27 1010.5 - 0.0 - - - - - - -
18/02:00pm 21.6 ESE 18 26 1010.8 - 0.0 - - - - - - -
18/01:30pm 21.4 ESE 17 25 1011.3 - 0.0 - - - - - - -
18/01:00pm 22.0 ESE 17 23 1011.8 - 0.0 - - - - - - -
18/12:42pm 22.9 ESE 16 27 1012.2 - 0.0 - - - - - - -
18/12:30pm 22.3 SE 15 25 1012.4 - 0.0 - - - - - - -
18/12:00pm 22.3 SE 16 23 1012.9 - 0.0 - - - - - - -
18/11:30am 22.2 SE 15 21 1013.5 - 0.0 - - - - - - -
18/11:00am 24.1 ENE 11 19 1014.0 - 0.0 - - - - - - -
18/10:30am 23.3 NE 12 22 1014.4 - 0.0 - - - - - - -
18/10:00am 22.0 NE 12 19 1014.8 - 0.0 - - - - - - -
18/09:30am 20.7 NE 13 19 1015.2 - 0.0 - - - - - - -
18/09:00am 20.1 NE 14 19 1015.7 - 0.0 - - - - - - -
18/08:30am 19.7 NE 13 18 1016.1 - 0.0 - - - - - - -
18/08:00am 19.1 NE 14 21 1016.5 - 0.0 - - - - - - -
18/07:30am 17.8 NE 12 19 1016.8 - 0.0 - - - - - - -
18/07:00am 16.4 NNE 9 14 1016.8 - 0.0 - - - - - - -
18/06:30am 13.5 NNE 6 9 1016.9 - 0.0 - - - - - - -
18/06:00am 10.8 NNE 5 6 1017.2 - 0.0 - - - - - - -
18/05:30am 10.3 NNE 6 7 1017.0 - 0.0 - - - - - - -
18/05:00am 10.3 NNE 5 6 1016.8 - 0.0 - - - - - - -
18/04:30am 10.3 NE 5 5 1016.7 - 0.0 - - - - - - -
18/04:00am 10.7 NNE 5 6 1016.8 - 0.0 - - - - - - -
18/03:30am 10.6 NE 5 6 1016.7 - 0.0 - - - - - - -
18/03:00am 11.3 NNE 4 5 1016.8 - 0.0 - - - - - - -
18/02:30am 10.8 N 2 2 1016.8 - 0.0 - - - - - - -
18/02:00am 11.4 NNE 4 5 1016.9 - 0.0 - - - - - - -
18/01:30am 11.9 NNE 4 5 1017.0 - 0.0 - - - - - - -
18/01:00am 12.6 NE 3 4 1017.4 - 0.0 - - - - - - -
18/12:30am 12.9 NNE 3 4 1017.8 - 0.0 - - - - - - -
18/12:00am 13.6 NNE 2 2 1018.0 - 0.0 - - - - - - -
 
Date/Time
WST
Temp
°C
Wind Pressure Rain since
9am
mm
Weather Cloud Vis
km
Sea
Height
m
Swell
Dir  Spd
kts
Gust
kts
hPa Trend Height
m
Period
s
Dir
17/11:30pm 14.8 NNE 3 5 1018.2 - 0.0 - - - - - - -
17/11:00pm 15.8 ENE 4 10 1018.3 - 0.0 - - - - - - -
17/10:30pm 16.8 E 8 13 1018.5 - 0.0 - - - - - - -
17/10:00pm 16.3 ENE 5 9 1018.7 - 0.0 - - - - - - -
17/09:30pm 16.4 ENE 6 10 1018.7 - 0.0 - - - - - - -
17/09:00pm 16.4 E 7 11 1018.7 - 0.0 - - - - - - -
17/08:30pm 16.7 ESE 9 13 1018.7 - 0.0 - - - - - - -
17/08:00pm 16.6 ESE 10 15 1018.6 - 0.0 - - - - - - -
17/07:30pm 16.7 ESE 9 15 1018.3 - 0.0 - - - - - - -
17/07:00pm 17.0 ESE 10 14 1017.9 - 0.0 - - - - - - -
17/06:30pm 17.6 SE 8 12 1017.6 - 0.0 - - - - - - -
17/06:00pm 18.6 ESE 11 16 1017.5 - 0.0 - - - - - - -
17/05:30pm 18.9 ESE 13 18 1017.1 - 0.0 - - - - - - -
17/05:00pm 19.4 ESE 12 18 1017.0 - 0.0 - - - - - - -
17/04:30pm 20.1 SE 13 19 1017.0 - 0.0 - - - - - - -
17/04:00pm 20.4 SE 13 18 1017.0 - 0.0 - - - - - - -
17/03:30pm 20.1 SE 14 19 1016.9 - 0.0 - - - - - - -
17/03:00pm 21.6 SE 11 15 1016.9 - 0.0 - - - - - - -
17/02:30pm 21.3 SE 11 17 1016.9 - 0.0 - - - - - - -
17/02:00pm 21.2 SSE 12 17 1016.8 - 0.0 - - - - - - -
17/01:30pm 20.5 SSE 14 20 1016.8 - 0.0 - - - - - - -
17/01:00pm 21.6 SSE 12 17 1017.0 - 0.0 - - - - - - -
17/12:30pm 21.2 SE 11 15 1017.0 - 0.0 - - - - - - -
17/12:00pm 20.7 SSE 11 17 1016.9 - 0.0 - - - - - - -
17/11:30am 20.7 SSE 12 17 1017.0 - 0.0 - - - - - - -
17/11:00am 20.5 SSE 12 17 1017.2 - 0.0 - - - - - - -
17/10:30am 20.4 SSE 12 16 1017.2 - 0.0 - - - - - - -
17/10:00am 19.8 SSE 12 16 1017.2 - 0.0 - - - - - - -

Other Formats:

Comma delimited format used in spreadsheet applications
http://www.bom.gov.au/fwo/IDW60701/IDW60701.95635.axf

JavaScript Object Notation format (JSON) in row-major order
http://www.bom.gov.au/fwo/IDW60701/IDW60701.95635.json